Etusivu
METAR-TAF:

METAR-TAF

Lentoasemat :

Wemindji, Quebec, Kanada

Leveyspiiri: 53-00-39N, Pituuspiiri: 078-49-49W, korkeus merenpinnasta: 15 m

Tämänhetkinen sää

Tämä raportti tehtiin 13 tuntia ja 14 minuuttia sitten, kello 20.00 UTC
Tuuli 13 kn idästä/koillisesta
Lämpötila 10°C
Kosteus 23%
Ilmanpaine 1028 hPa
Näkyvyys: 24.1 km
selkeää

METAR: CYNC 312000Z 06013KT 15SM SKC 10/M10 A3037 RMK LAST STFD OBS/NEXT 011300UTC SLP289

Aika: 05:14 (09:14 UTC)


TAF: puuttuu

Säähavainnot ja -ennusteet yli 4000 lentoasemalta (METAR- ja TAF-raportit).

Käytössä olevat sääasemat on merkitty karttaan keltaisilla ja punaisilla pisteillä.

Aseta hiiri pisteen päälle nähdäksesi sääaseman nimen.

Klikkaa sitten nähdäksesi säähavainnot ja -ennusteet.

Kartan vaihtaminen: klikkaa mustalla rastilla varustettuja vihreitä pisteitä, niin voit zoomata sisään; viivalla varustettua vihreää pistettä, niin voit zoomata ulos tai vihreitä nuolia, niin pääset viereisille kartoille.


METAR-TAF: